Share

Krabi, Thailand

2:50 AM ICT on April 25, 2014 (GMT +0700)
Ao Nang, Krabi (IKRABIAO1) Elev 177 ft | 8.05 °N, 98.84 °E | Change Station

Current weather conditions updated 4 minutes ago

Scattered Clouds
Scattered Clouds
79.5 °F
Feels Like 85 °F
N
0.0
Wind Variable Wind from WNW
Gusts 0.0 mph
Sunrise 6:11 AM
Sunset 6:33 PM
Moon Waning Crescent

Today is forecast to be nearly the same temperature as yesterday. Showers and thunderstorms late.

Pressure 29.77 in
Visibility 6.2 miles
Clouds Few 2500 ft
Scattered Clouds 30000 ft
Heat Index 85 °F
Dew Point 78 °F
Humidity 96%
Rainfall 0.00 in
Snow Depth Not available.
UV 0.0 out of 16
Pollen Not available.
Air Quality Not available.
Flu Activity Not available.
METAR VTSP 241930Z 00000KT 9999 FEW025 SCT300 26/25 Q1008 A2977 NOSIG

More Conditions Fewer Conditions

Pressure 29.77 in
Visibility 6.2 miles
Clouds Few 2500 ft
Scattered Clouds 30000 ft
Heat Index 85 °F
Dew Point 78 °F
Humidity 96%
Rainfall 0.00 in
Snow Depth Not available.
UV 0.0 out of 16
Pollen Not available.
Air Quality Not available.
Flu Activity Not available.
METAR VTSP 241930Z 00000KT 9999 FEW025 SCT300 26/25 Q1008 A2977 NOSIG

More Conditions Fewer Conditions

10-Day Weather Forecast

Almanac

Astronomy

Apr. 25, 2014 Rise Set
Actual Time 6:11 AM ICT 6:33 PM ICT
Civil Twilight 5:49 AM ICT 6:54 PM ICT
Nautical Twilight 5:24 AM ICT 7:19 PM ICT
Astronomical Twilight 4:59 AM ICT 7:45 PM ICT
Moon 2:47 AM ICT (4/25) 3:07 PM ICT (4/25)
Length of Visible Light 13h 05m
Length of Day
12h 22m
Tomorrow will be 0m 24s longer.
Waning Crescent, 23% of the Moon is Illuminated
Apr 24
Waning Crescent
Apr 29
New
May 6
First Quarter
May 14
Full
May 21
Last Quarter

Yesterday's Extremes

Country Highs Country Lows

Community

  • Sunset at Apalachicola Bay, Florida
    Sunset at Apalachicola Bay, Florida
  • Clouds mov'n in
    Clouds mov'n in
  • Stacked
    Stacked
  • clouds approaching Red Sox Nation
    clouds approaching Red Sox Nation
  • Balance
    Balance

WunderPhotos

Upload Photos

1,704,708 photos uploaded!

Nearby

Snow Depth

Not available.

Coastal Water Temperatures

Place Temperature
No Stations Reporting

Earthquake Activity

City Distance Mag. Time & Date
No recent earthquake activity has been reported nearby.
Minimum magnitude displayed is 2.5.

Nearby Weather Stations

Station Location Temp. Heat Index Dew Point Humidity Wind Precip. Elev Updated Type
Ao Nang, Krabi, Ao Nang 79.5 °F 85 °F 78 °F 96% WNW  at  0.0 mph 0.00 in / hr 177 ft 2:45 AM ICT Normal

Show More Stations Show Fewer Stations

What do you think?

We're not finished. Please let us know what you like, what you don't like, and what you are still missing.